CYGP

Gaspé (Michel-Pouliot) Airport

Gaspé, Quebec, Canada
METAR CYGP 200000Z 25003KT 15SM SCT030 M13/M17 A2979 RMK SC3 SLP094
Observed Flight Rules
Jan-20 @ 00:00 UTC (an hour ago) Visual Flight Rules
Wind Visibility Clouds
250° at 3 knots 15 miles
  • Scattered at 3,000' AGL
Temperatures Readings
Current -13°C / 9°F
Dewpoint -17°C / 1°F
Humidity 72%
Altimeter 29.79" Hg
Pressure 1009.4 hPa
Elevation 33
METAR CYGP 200000Z 25003KT 15SM SCT030 M13/M17 A2979 RMK SC3 SLP094
Observed Flight Rules
Jan-20 @ 00:00 UTC
(an hour ago)
VFR
Wind Visibility
250° at 3 knots 15 miles
Clouds
  • Scattered at 3,000' AGL
Temperature Dewpoint
-13°C / 9°F -17°C / 1°F
Humidity Altimeter Pressure
72% 29.79" Hg 1009.4 hPa